Terminal Aerodrome Forecast
Issued by NWS Bismarck, ND

Home | Current Version | Previous Version | Graphics & Text | Print | Product List | Glossary On
Versions: 1 2 3 4 5 6 7 8 9 10 11 12 13 14 15 16 17 18 19 20 21
468
FTUS43 KBIS 262201 AAB
TAFBIS
TAF AMD
KBIS 262201Z 2622/2718 01012G20KT P6SM SCT040 BKN120
     FM262300 04008KT P6SM VCTS SCT050 BKN080CB
     FM270400 06007KT P6SM SCT100=

USA.gov is the U.S. government's official web portal to all federal, state and local government web resources and services.